createdAt,value
2019-02-09T00:00:32.583Z,38.50
2019-02-09T00:03:05.416Z,39.87
2019-02-09T00:05:35.964Z,39.90
2019-02-09T00:08:07.417Z,39.87
2019-02-09T00:10:37.998Z,41.80
2019-02-09T00:13:11.886Z,39.37
2019-02-09T00:15:44.491Z,38.37
2019-02-09T00:18:32.983Z,39.00
2019-02-09T00:21:04.772Z,41.90
2019-02-09T00:23:37.427Z,37.07
2019-02-09T00:26:18.418Z,38.70
2019-02-09T00:28:45.481Z,39.57
2019-02-09T00:31:18.834Z,38.10
2019-02-09T00:33:51.038Z,37.90
2019-02-09T00:36:22.902Z,34.80
2019-02-09T00:38:53.904Z,35.53
2019-02-09T00:41:24.869Z,35.30
2019-02-09T00:43:55.576Z,34.53
2019-02-09T00:46:26.644Z,35.03
2019-02-09T00:48:57.860Z,35.70
2019-02-09T00:51:28.553Z,35.80
2019-02-09T00:54:01.899Z,34.40
2019-02-09T00:56:33.990Z,36.27
2019-02-09T00:59:08.065Z,34.60
2019-02-09T01:01:38.631Z,37.90
2019-02-09T01:04:12.222Z,34.80
2019-02-09T01:06:45.411Z,34.27
2019-02-09T01:09:17.933Z,36.10
2019-02-09T01:11:51.251Z,33.07
2019-02-09T01:14:21.942Z,35.83
2019-02-09T01:16:53.246Z,34.47
2019-02-09T01:19:27.256Z,34.87
2019-02-09T01:22:04.027Z,35.30
2019-02-09T01:24:37.093Z,33.63
2019-02-09T01:27:17.553Z,33.87
2019-02-09T01:29:49.537Z,35.20
2019-02-09T01:32:21.836Z,32.57
2019-02-09T01:34:55.545Z,33.63
2019-02-09T01:37:28.033Z,34.77
2019-02-09T01:39:59.343Z,32.13
2019-02-09T01:42:31.289Z,32.10
2019-02-09T01:45:04.989Z,30.53
2019-02-09T01:47:37.209Z,32.27
2019-02-09T01:50:14.245Z,32.10
2019-02-09T01:52:46.334Z,31.47
2019-02-09T01:55:19.836Z,30.30
2019-02-09T01:57:52.943Z,32.57
2019-02-09T02:00:26.205Z,30.43
2019-02-09T02:02:59.906Z,30.03
2019-02-09T02:05:33.279Z,29.93
2019-02-09T02:08:06.497Z,30.17
2019-02-09T02:10:38.487Z,31.97
2019-02-09T02:13:12.149Z,33.27
2019-02-09T02:15:44.151Z,32.50
2019-02-09T02:18:18.951Z,30.80
2019-02-09T02:20:50.892Z,31.10
2019-02-09T02:23:21.420Z,32.17
2019-02-09T02:25:53.167Z,32.17
2019-02-09T02:28:25.933Z,33.30
2019-02-09T02:30:59.288Z,33.03
2019-02-09T02:33:30.587Z,32.37
2019-02-09T02:36:02.787Z,29.97
2019-02-09T02:38:35.463Z,32.10
2019-02-09T02:41:10.515Z,33.23
2019-02-09T02:43:42.576Z,32.90
2019-02-09T02:46:14.324Z,32.20
2019-02-09T02:48:50.844Z,30.00
2019-02-09T02:51:31.279Z,33.07
2019-02-09T02:54:03.552Z,32.87
2019-02-09T02:56:37.630Z,32.70
2019-02-09T02:59:17.398Z,31.67
2019-02-09T03:01:48.562Z,31.87
2019-02-09T03:04:19.047Z,30.97
2019-02-09T03:06:50.972Z,31.33
2019-02-09T03:09:24.383Z,31.37
2019-02-09T03:12:13.633Z,31.90
2019-02-09T03:14:44.550Z,33.50
2019-02-09T03:17:17.713Z,31.90
2019-02-09T03:19:51.039Z,32.87
2019-02-09T03:22:40.055Z,31.97
2019-02-09T03:25:26.108Z,33.77
2019-02-09T03:27:57.716Z,32.70
2019-02-09T03:30:29.254Z,34.33
2019-02-09T03:33:00.043Z,31.87
2019-02-09T03:35:30.505Z,32.70
2019-02-09T03:38:01.745Z,32.07
2019-02-09T03:40:41.628Z,31.70
2019-02-09T03:43:12.752Z,33.87
2019-02-09T03:45:45.653Z,32.23
2019-02-09T03:48:19.855Z,33.13
2019-02-09T03:50:50.966Z,31.60
2019-02-09T03:53:22.468Z,33.37
2019-02-09T03:56:10.922Z,32.30
2019-02-09T03:58:41.704Z,29.67
2019-02-09T04:01:14.048Z,31.50
2019-02-09T04:03:49.002Z,31.17
2019-02-09T04:06:25.156Z,32.83
2019-02-09T04:08:57.874Z,31.00
2019-02-09T04:11:28.631Z,33.60
2019-02-09T04:13:59.879Z,33.17
2019-02-09T04:16:31.075Z,31.60
2019-02-09T04:19:07.862Z,31.77
2019-02-09T04:21:44.052Z,31.53
2019-02-09T04:24:15.868Z,31.73
2019-02-09T04:26:50.099Z,30.90
2019-02-09T04:29:21.427Z,30.83
2019-02-09T04:31:54.789Z,32.00
2019-02-09T04:34:28.611Z,33.07
2019-02-09T04:37:00.210Z,30.87
2019-02-09T04:39:33.914Z,31.40
2019-02-09T04:42:10.331Z,32.27
2019-02-09T04:44:41.035Z,31.10
2019-02-09T04:47:12.277Z,30.97
2019-02-09T04:50:01.534Z,31.73
2019-02-09T04:52:36.831Z,33.23
2019-02-09T04:55:12.226Z,32.03
2019-02-09T04:57:43.899Z,33.13
2019-02-09T05:00:23.374Z,32.37
2019-02-09T05:02:54.164Z,30.57
2019-02-09T05:05:26.983Z,33.77
2019-02-09T05:07:59.132Z,30.23
2019-02-09T05:10:30.875Z,30.27
2019-02-09T05:13:04.487Z,31.77
2019-02-09T05:15:35.057Z,32.57
2019-02-09T05:18:08.371Z,31.83
2019-02-09T05:20:38.891Z,30.97
2019-02-09T05:23:10.734Z,33.10
2019-02-09T05:25:41.970Z,30.93
2019-02-09T05:28:31.308Z,31.30
2019-02-09T05:31:22.798Z,32.50
2019-02-09T05:33:52.348Z,34.00
2019-02-09T05:36:30.171Z,33.07
2019-02-09T05:39:04.844Z,31.67
2019-02-09T05:41:44.143Z,33.63
2019-02-09T05:44:18.192Z,31.77
2019-02-09T05:46:51.851Z,33.60
2019-02-09T05:49:31.195Z,32.73
2019-02-09T05:52:02.605Z,35.40
2019-02-09T05:54:35.262Z,33.80
2019-02-09T05:57:10.051Z,34.30
2019-02-09T05:59:41.182Z,35.40
2019-02-09T06:02:14.171Z,35.10
2019-02-09T06:04:48.024Z,35.83
2019-02-09T06:07:22.201Z,37.13
2019-02-09T06:09:55.327Z,35.30
2019-02-09T06:12:29.959Z,34.93
2019-02-09T06:15:02.552Z,36.17
2019-02-09T06:17:33.574Z,36.47
2019-02-09T06:20:13.857Z,37.47
2019-02-09T06:22:44.512Z,35.87
2019-02-09T06:25:17.264Z,37.77
2019-02-09T06:27:51.776Z,36.63
2019-02-09T06:30:25.296Z,35.80
2019-02-09T06:32:58.809Z,37.17
2019-02-09T06:35:38.912Z,37.13
2019-02-09T06:38:11.476Z,36.23
2019-02-09T06:40:42.607Z,37.33
2019-02-09T06:43:13.524Z,37.90
2019-02-09T06:45:53.780Z,36.97
2019-02-09T06:48:28.032Z,37.03
2019-02-09T06:51:03.176Z,35.50
2019-02-09T06:53:35.608Z,36.43
2019-02-09T06:56:07.517Z,38.73
2019-02-09T06:58:38.103Z,35.57
2019-02-09T07:01:11.993Z,36.30
2019-02-09T07:03:44.821Z,38.00
2019-02-09T07:06:17.503Z,36.13
2019-02-09T07:08:51.296Z,38.33
2019-02-09T07:11:24.475Z,37.60
2019-02-09T07:13:55.363Z,38.33
2019-02-09T07:16:28.318Z,35.43
2019-02-09T07:19:01.949Z,38.37
2019-02-09T07:21:38.801Z,35.90
2019-02-09T07:24:11.502Z,39.50
2019-02-09T07:26:45.614Z,38.13
2019-02-09T07:29:17.574Z,36.23
2019-02-09T07:31:56.493Z,38.70
2019-02-09T07:34:30.214Z,37.30
2019-02-09T07:37:02.813Z,38.40
2019-02-09T07:39:34.783Z,37.17
2019-02-09T07:42:06.588Z,36.13
2019-02-09T07:44:37.459Z,35.83
2019-02-09T07:47:09.019Z,37.90
2019-02-09T07:49:39.526Z,37.30
2019-02-09T07:52:11.395Z,38.90
2019-02-09T07:54:45.626Z,37.20
2019-02-09T07:57:35.095Z,37.87
2019-02-09T08:00:17.617Z,38.30
2019-02-09T08:02:54.041Z,39.30
2019-02-09T08:05:29.815Z,37.27
2019-02-09T08:08:01.420Z,38.40
2019-02-09T08:10:33.998Z,38.80
2019-02-09T08:13:08.088Z,38.33
2019-02-09T08:15:39.058Z,39.43
2019-02-09T08:18:12.689Z,38.67
2019-02-09T08:20:49.661Z,38.90
2019-02-09T08:23:22.433Z,40.37
2019-02-09T08:25:53.486Z,40.47
2019-02-09T08:28:24.354Z,37.50
2019-02-09T08:30:55.955Z,39.53
2019-02-09T08:33:27.452Z,38.57
2019-02-09T08:36:01.062Z,41.70
2019-02-09T08:38:34.911Z,41.70
2019-02-09T08:41:08.815Z,41.97
2019-02-09T08:43:41.971Z,42.37
2019-02-09T08:46:16.951Z,42.50
2019-02-09T08:48:47.820Z,40.27
2019-02-09T08:51:18.266Z,40.70
2019-02-09T08:53:50.203Z,38.70
2019-02-09T08:56:23.159Z,38.20
2019-02-09T08:58:55.180Z,38.47
2019-02-09T09:01:29.874Z,39.87
2019-02-09T09:04:02.055Z,39.03
2019-02-09T09:06:35.054Z,39.43
2019-02-09T09:09:11.235Z,40.53
2019-02-09T09:11:56.434Z,40.90
2019-02-09T09:14:27.278Z,41.07
2019-02-09T09:16:58.259Z,37.83
2019-02-09T09:19:30.534Z,38.53
2019-02-09T09:22:04.295Z,39.23
2019-02-09T09:24:37.637Z,39.93
2019-02-09T09:27:08.225Z,40.90
2019-02-09T09:29:38.795Z,42.43
2019-02-09T09:32:10.918Z,41.30
2019-02-09T09:34:56.305Z,40.83
2019-02-09T09:37:27.239Z,41.30
2019-02-09T09:39:59.059Z,41.50
2019-02-09T09:42:31.577Z,39.20
2019-02-09T09:45:06.904Z,42.20
2019-02-09T09:47:39.380Z,41.70
2019-02-09T09:50:12.221Z,41.67
2019-02-09T09:52:45.456Z,44.30
2019-02-09T09:55:18.746Z,45.23
2019-02-09T09:57:57.367Z,41.80
2019-02-09T10:00:30.689Z,42.27
2019-02-09T10:03:19.314Z,41.90
2019-02-09T10:05:53.292Z,43.30
2019-02-09T10:08:27.666Z,44.17
2019-02-09T10:11:00.405Z,41.77
2019-02-09T10:13:32.374Z,43.37
2019-02-09T10:16:04.663Z,44.70
2019-02-09T10:18:38.347Z,44.17
2019-02-09T10:21:11.135Z,42.53
2019-02-09T10:23:45.000Z,42.40
2019-02-09T10:26:21.345Z,43.60
2019-02-09T10:28:54.442Z,44.30
2019-02-09T10:31:26.884Z,41.03
2019-02-09T10:33:57.626Z,42.20
2019-02-09T10:36:28.285Z,41.50
2019-02-09T10:39:14.446Z,40.07
2019-02-09T10:41:49.724Z,43.33
2019-02-09T10:44:38.513Z,40.83
2019-02-09T10:47:12.333Z,40.30
2019-02-09T10:49:46.433Z,41.67
2019-02-09T10:52:22.713Z,42.00
2019-02-09T10:54:54.375Z,40.80
2019-02-09T10:57:27.892Z,42.10
2019-02-09T11:00:01.840Z,40.17
2019-02-09T11:02:33.857Z,40.57
2019-02-09T11:05:08.035Z,40.50
2019-02-09T11:07:38.631Z,40.50
2019-02-09T11:10:13.345Z,39.97
2019-02-09T11:12:46.474Z,39.40
2019-02-09T11:15:20.074Z,41.37
2019-02-09T11:17:50.996Z,40.80
2019-02-09T11:20:22.462Z,40.30
2019-02-09T11:22:55.740Z,41.40
2019-02-09T11:25:30.122Z,42.00
2019-02-09T11:28:19.466Z,41.30
2019-02-09T11:30:58.930Z,43.10
2019-02-09T11:33:33.747Z,40.10
2019-02-09T11:36:06.321Z,39.23
2019-02-09T11:38:39.185Z,39.33
2019-02-09T11:41:12.622Z,40.20
2019-02-09T11:43:45.901Z,40.87
2019-02-09T11:46:22.170Z,40.43
2019-02-09T11:48:55.607Z,39.03
2019-02-09T11:51:27.011Z,41.60
2019-02-09T11:53:58.228Z,40.87
2019-02-09T11:56:31.825Z,40.37
2019-02-09T11:59:03.126Z,41.33
2019-02-09T12:01:33.812Z,39.37
2019-02-09T12:04:22.863Z,40.40
2019-02-09T12:07:10.088Z,41.03
2019-02-09T12:09:43.189Z,45.17
2019-02-09T12:12:14.949Z,44.10
2019-02-09T12:14:49.717Z,42.10
2019-02-09T12:17:23.199Z,43.13
2019-02-09T12:19:56.716Z,42.10
2019-02-09T12:22:31.678Z,42.80
2019-02-09T12:25:07.599Z,42.43
2019-02-09T12:27:41.237Z,40.33
2019-02-09T12:30:21.334Z,41.10
2019-02-09T12:32:53.486Z,41.10
2019-02-09T12:35:38.503Z,40.83
2019-02-09T12:38:10.829Z,39.00
2019-02-09T12:40:42.027Z,42.47
2019-02-09T12:43:13.872Z,40.17
2019-02-09T12:45:46.513Z,40.87
2019-02-09T12:48:18.410Z,39.47
2019-02-09T12:51:01.296Z,39.40
2019-02-09T12:53:39.351Z,39.50
2019-02-09T12:56:14.519Z,39.47
2019-02-09T12:58:45.119Z,40.80
2019-02-09T13:01:16.985Z,37.57
2019-02-09T13:03:50.893Z,39.80
2019-02-09T13:06:23.879Z,40.00
2019-02-09T13:08:55.987Z,39.00
2019-02-09T13:14:45.609Z,40.10
2019-02-09T13:17:19.897Z,40.97
2019-02-09T13:19:52.553Z,36.63
2019-02-09T13:22:25.051Z,37.73
2019-02-09T13:24:57.048Z,37.53
2019-02-09T13:27:39.577Z,39.40
2019-02-09T13:30:22.465Z,39.93
2019-02-09T13:32:53.438Z,38.20
2019-02-09T13:35:33.122Z,39.17
2019-02-09T13:38:05.358Z,39.17
2019-02-09T13:40:40.607Z,38.43
2019-02-09T13:43:14.434Z,36.10
2019-02-09T13:46:04.113Z,36.13
2019-02-09T13:48:41.852Z,36.07
2019-02-09T13:51:12.317Z,35.93
2019-02-09T13:53:43.483Z,36.33
2019-02-09T13:56:15.446Z,34.73
2019-02-09T13:58:52.399Z,36.67
2019-02-09T14:01:26.103Z,35.17
2019-02-09T14:04:00.239Z,35.17
2019-02-09T14:06:33.586Z,36.40
2019-02-09T14:09:07.122Z,36.23
2019-02-09T14:11:40.882Z,36.13
2019-02-09T14:14:21.145Z,35.70
2019-02-09T14:16:51.679Z,36.47
2019-02-09T14:19:23.047Z,36.50
2019-02-09T14:22:09.236Z,34.90
2019-02-09T14:24:40.029Z,35.27
2019-02-09T14:27:10.608Z,35.07
2019-02-09T14:29:42.245Z,35.67
2019-02-09T14:32:13.775Z,33.97
2019-02-09T14:34:45.195Z,34.80
2019-02-09T14:37:17.350Z,35.90
2019-02-09T14:39:51.848Z,35.23
2019-02-09T14:42:23.679Z,35.07
2019-02-09T14:44:57.821Z,34.73
2019-02-09T14:47:33.643Z,34.40
2019-02-09T14:50:11.172Z,36.47
2019-02-09T14:52:41.864Z,35.47
2019-02-09T14:55:22.635Z,35.50
2019-02-09T14:57:53.248Z,34.43
2019-02-09T15:00:32.070Z,35.40
2019-02-09T15:03:04.435Z,35.37
2019-02-09T15:05:53.720Z,33.60
2019-02-09T15:08:26.906Z,35.63
2019-02-09T15:11:00.777Z,35.10
2019-02-09T15:13:37.753Z,35.17
2019-02-09T15:16:37.548Z,33.07
2019-02-09T15:19:12.869Z,33.57
2019-02-09T15:21:49.304Z,35.60
2019-02-09T15:24:22.794Z,33.77
2019-02-09T15:26:55.665Z,34.17
2019-02-09T15:29:37.324Z,35.30
2019-02-09T15:32:09.761Z,33.70
2019-02-09T15:34:44.217Z,35.27
2019-02-09T15:37:19.983Z,34.67
2019-02-09T15:39:59.749Z,34.97
2019-02-09T15:42:31.629Z,35.47
2019-02-09T15:45:03.883Z,36.20
2019-02-09T15:47:34.747Z,33.40
2019-02-09T15:50:08.880Z,34.20
2019-02-09T15:52:39.362Z,36.00
2019-02-09T15:55:11.717Z,36.20
2019-02-09T15:57:47.139Z,35.43
2019-02-09T16:00:23.392Z,36.10
2019-02-09T16:02:54.918Z,35.07
2019-02-09T16:05:28.143Z,37.00
2019-02-09T16:07:59.794Z,36.00
2019-02-09T16:10:39.390Z,35.60
2019-02-09T16:13:10.964Z,37.60
2019-02-09T16:15:42.091Z,36.70
2019-02-09T16:18:15.245Z,36.70
2019-02-09T16:20:46.030Z,35.90
2019-02-09T16:23:23.712Z,39.00
2019-02-09T16:25:56.897Z,38.77
2019-02-09T16:28:28.796Z,39.00
2019-02-09T16:31:00.273Z,40.17
2019-02-09T16:33:34.760Z,40.93
2019-02-09T16:36:07.780Z,38.07
2019-02-09T16:38:39.547Z,38.33
2019-02-09T16:41:12.036Z,39.83
2019-02-09T16:43:45.600Z,39.50
2019-02-09T16:46:17.219Z,39.13
2019-02-09T16:48:50.419Z,39.20
2019-02-09T16:51:21.606Z,40.63
2019-02-09T16:54:07.902Z,37.50
2019-02-09T16:56:41.790Z,41.00
2019-02-09T16:59:16.988Z,39.27
2019-02-09T17:01:52.427Z,39.30
2019-02-09T17:04:24.731Z,38.00
2019-02-09T17:06:57.558Z,39.07
2019-02-09T17:09:28.449Z,39.10
2019-02-09T17:11:59.315Z,38.90
2019-02-09T17:14:33.389Z,36.63
2019-02-09T17:17:14.019Z,38.40
2019-02-09T17:19:45.336Z,39.33
2019-02-09T17:22:18.469Z,37.43
2019-02-09T17:24:51.891Z,41.23
2019-02-09T17:27:25.144Z,43.97
2019-02-09T17:29:57.998Z,82.60
2019-02-09T17:32:30.298Z,56.37
2019-02-09T17:35:03.847Z,45.07
2019-02-09T17:37:38.191Z,42.60
2019-02-09T17:40:12.683Z,41.77
2019-02-09T17:42:52.985Z,40.47
2019-02-09T17:45:35.839Z,39.40
2019-02-09T17:48:08.415Z,39.07
2019-02-09T17:50:57.682Z,41.00
2019-02-09T17:53:31.058Z,41.27
2019-02-09T17:56:03.186Z,40.57
2019-02-09T17:58:35.384Z,38.37
2019-02-09T18:01:12.423Z,38.57
2019-02-09T18:03:45.614Z,38.23
2019-02-09T18:06:21.363Z,40.37
2019-02-09T18:08:55.395Z,39.73
2019-02-09T18:11:30.860Z,40.47
2019-02-09T18:14:23.327Z,42.10
2019-02-09T18:17:12.590Z,41.23
2019-02-09T18:19:56.446Z,41.67
2019-02-09T18:22:27.512Z,43.93
2019-02-09T18:24:59.615Z,41.30
2019-02-09T18:27:54.790Z,42.50
2019-02-09T18:30:31.845Z,42.90
2019-02-09T18:33:22.313Z,40.33
2019-02-09T18:35:55.509Z,41.67
2019-02-09T18:38:44.394Z,40.20
2019-02-09T18:41:33.551Z,40.50
2019-02-09T18:44:06.211Z,43.10
2019-02-09T18:46:40.895Z,42.83
2019-02-09T18:49:16.641Z,44.07
2019-02-09T18:52:02.598Z,41.73
2019-02-09T18:54:34.828Z,43.87
2019-02-09T18:57:06.973Z,43.30
2019-02-09T18:59:45.591Z,43.37
2019-02-09T19:02:20.670Z,42.73
2019-02-09T19:05:04.134Z,42.77
2019-02-09T19:07:34.660Z,41.80
2019-02-09T19:10:09.207Z,42.47
2019-02-09T19:12:39.844Z,43.40
2019-02-09T19:15:14.998Z,41.27
2019-02-09T19:17:46.962Z,41.97
2019-02-09T19:20:27.610Z,41.20
2019-02-09T19:23:14.467Z,41.13
2019-02-09T19:25:46.843Z,38.97
2019-02-09T19:28:23.796Z,39.93
2019-02-09T19:30:55.290Z,39.63
2019-02-09T19:33:28.694Z,41.63
2019-02-09T19:36:18.238Z,40.93
2019-02-09T19:39:12.486Z,42.70
2019-02-09T19:42:01.719Z,43.40
2019-02-09T19:44:33.682Z,42.03
2019-02-09T19:47:08.710Z,43.33
2019-02-09T19:49:39.271Z,41.13
2019-02-09T19:52:14.122Z,42.60
2019-02-09T19:54:49.157Z,43.07
2019-02-09T19:57:20.832Z,42.50
2019-02-09T19:59:56.043Z,42.30
2019-02-09T20:02:30.230Z,46.17
2019-02-09T20:05:01.231Z,45.40
2019-02-09T20:07:36.349Z,43.80
2019-02-09T20:10:31.442Z,44.80
2019-02-09T20:13:06.558Z,44.33
2019-02-09T20:15:41.374Z,43.00
2019-02-09T20:18:15.037Z,42.70
2019-02-09T20:20:52.550Z,44.20
2019-02-09T20:23:23.978Z,44.50
2019-02-09T20:25:58.012Z,46.47
2019-02-09T20:28:31.061Z,46.00
2019-02-09T20:31:02.117Z,44.47
2019-02-09T20:33:36.416Z,43.73
2019-02-09T20:36:10.054Z,45.40
2019-02-09T20:38:51.098Z,46.07
2019-02-09T20:41:26.748Z,46.37
2019-02-09T20:44:00.108Z,45.27
2019-02-09T20:46:32.236Z,47.80
2019-02-09T20:49:07.156Z,45.83
2019-02-09T20:51:40.388Z,47.60
2019-02-09T20:54:13.768Z,46.90
2019-02-09T20:56:48.422Z,45.00
2019-02-09T20:59:42.652Z,45.10
2019-02-09T21:02:16.915Z,47.90
2019-02-09T21:04:51.951Z,48.17
2019-02-09T21:07:29.743Z,45.37
2019-02-09T21:10:00.485Z,46.13
2019-02-09T21:12:31.376Z,46.03
2019-02-09T21:15:02.336Z,47.50
2019-02-09T21:17:34.852Z,45.53
2019-02-09T21:20:11.860Z,45.70
2019-02-09T21:22:42.609Z,47.57
2019-02-09T21:25:24.961Z,44.13
2019-02-09T21:27:56.713Z,45.63
2019-02-09T21:30:28.775Z,43.50
2019-02-09T21:32:59.262Z,45.53
2019-02-09T21:35:31.866Z,43.90
2019-02-09T21:38:06.111Z,44.00
2019-02-09T21:40:40.383Z,42.50
2019-02-09T21:43:19.160Z,42.27
2019-02-09T21:46:01.089Z,40.53
2019-02-09T21:48:33.622Z,42.83
2019-02-09T21:51:10.954Z,40.30
2019-02-09T21:53:43.356Z,41.90
2019-02-09T21:56:19.672Z,41.03
2019-02-09T21:58:52.278Z,41.87
2019-02-09T22:01:24.968Z,40.43
2019-02-09T22:03:56.889Z,39.53
2019-02-09T22:06:31.509Z,40.67
2019-02-09T22:09:07.667Z,42.90
2019-02-09T22:11:42.330Z,40.63
2019-02-09T22:14:17.823Z,39.63
2019-02-09T22:16:49.922Z,41.17
2019-02-09T22:19:22.526Z,41.60
2019-02-09T22:21:54.869Z,42.07
2019-02-09T22:24:31.224Z,42.60
2019-02-09T22:27:04.725Z,41.40
2019-02-09T22:29:42.570Z,42.03
2019-02-09T22:32:14.948Z,40.03
2019-02-09T22:34:46.234Z,42.97
2019-02-09T22:37:16.824Z,43.37
2019-02-09T22:39:47.938Z,41.10
2019-02-09T22:42:23.651Z,43.83
2019-02-09T22:44:55.768Z,41.90
2019-02-09T22:47:26.634Z,41.17
2019-02-09T22:50:00.534Z,41.17
2019-02-09T22:52:37.229Z,41.10
2019-02-09T22:55:10.155Z,42.00
2019-02-09T22:57:44.146Z,41.83
2019-02-09T23:00:58.336Z,40.83
2019-02-09T23:03:38.974Z,43.43
2019-02-09T23:06:44.125Z,41.73
2019-02-09T23:09:30.329Z,43.00
2019-02-09T23:12:03.847Z,41.83
2019-02-09T23:14:38.197Z,41.07
2019-02-09T23:17:10.121Z,42.13
2019-02-09T23:19:44.973Z,44.63
2019-02-09T23:22:23.076Z,42.03
2019-02-09T23:25:01.290Z,41.13
2019-02-09T23:27:33.169Z,42.17
2019-02-09T23:30:12.513Z,43.50
2019-02-09T23:32:46.091Z,44.30
2019-02-09T23:35:36.919Z,45.00
2019-02-09T23:38:25.427Z,43.20
2019-02-09T23:41:02.498Z,42.33
2019-02-09T23:43:41.451Z,41.90
2019-02-09T23:46:14.265Z,45.43
2019-02-09T23:48:48.877Z,45.60
2019-02-09T23:51:22.410Z,46.33
2019-02-09T23:53:55.567Z,48.27
2019-02-09T23:56:31.189Z,46.83
2019-02-09T23:59:02.499Z,47.63
